Don's Testing Zone


Current Conditions
weather data
source:

National Weather Service
Clear Searcy, AR
Clear, 75°F
Sunday, May 20, 2018 7:56 AM CDT
Temperature: 75°F/24°C
Humidity: 89%
Barometer: 30.05in/1018.1mb Barometer Steady
Wind: Variable at 3mph/6kmh
View other cities:
Searcy | Little Rock | Hot Springs | Russellville | More...
Astronomical Conditions (Clear Sky Clock)
Searcy Clear Sky Clock
Find more weather in Little Rock, AR
    

Radar Images

NWS
    Wx Underground

KARK
   

Solar-Terrestrial Data

NWS METAR weather data

ADDS - METARS form results





Aviation Digital Data Service (ADDS) Output produced by METARs form (1355 UTC 20 May 2018) found at http://aviationweather.gov/adds/metars/ 

KSRC 201256Z AUTO VRB03KT 10SM CLR 24/22 A3005 RMK AO2 SLP181 T02440222

KSRC 201156Z AUTO 00000KT 9SM CLR 21/21 A3005 RMK AO2 SLP179 6//// 7////T02110211 10233 20194 51015

KSRC 201128Z AUTO 00000KT 3SM BR CLR 20/20 A3003 RMK AO2

KSRC 201119Z AUTO 00000KT 1 3/4SM BR CLR 20/20 A3003 RMK AO2

KSRC 201056Z AUTO 00000KT 3SM BR CLR 20/20 A3003 RMK AO2 SLP174 T02000200

KSRC 200956Z AUTO 00000KT 5SM BR CLR 20/20 A3003 RMK AO2 SLP172 T02000200

KSRC 200856Z AUTO 00000KT 6SM BR CLR 20/20 A3000 RMK AO2 SLP163 6//// T0200020053001

KSRC 200756Z AUTO 00000KT 10SM CLR 21/21 A3000 RMK AO2 SLP164 T02110211

KSRC 200656Z AUTO 14003KT 10SM CLR 23/22 A2999 RMK AO2 SLP161 T02280222

KSRC 200556Z AUTO 11004KT 10SM CLR 23/22 A3000 RMK AO2 SLP162 6//// T0233021710311 20233 50007

KSRC 200456Z AUTO 06006KT 10SM CLR 24/22 A3001 RMK AO2 SLP167 T02390222403330189

KSRC 200356Z AUTO 05004KT 10SM CLR 24/22 A3000 RMK AO2 SLP163 T02440217

KSRC 200256Z AUTO 01003KT 10SM CLR 25/22 A2998 RMK AO2 SLP156 6//// T0250021751024

KSRC 200156Z AUTO 00000KT 9SM FEW070 25/22 A2996 RMK AO2 SLP152 T02500222

KSRC 200056Z AUTO 36003KT 10SM CLR 28/20 A2995 RMK AO2 SLP146 T02830200

KSRC 192356Z AUTO 20003KT 10SM CLR 31/19 A2991 RMK AO2 SLP132 6//// T0311019410333 20311 53005

KSRC 192256Z AUTO 20003KT 10SM CLR 33/18 A2989 RMK AO2 SLP127 T03330183

KSRC 192156Z AUTO VRB06KT 10SM CLR 33/18 A2989 RMK AO2 SLP125 T03330183

KSRC 192056Z AUTO 20008KT 10SM CLR 33/22 A2989 RMK AO2 SLP126 6//// T0333021756016 TSNO

KSRC 191956Z AUTO 20007KT 10SM FEW045 33/22 A2990 RMK AO2 SLP129 T03280222

KSRC 191856Z AUTO 19008KT 10SM BKN041 32/23 A2992 RMK AO2 SLP136 T03220233

KSRC 191756Z AUTO 18009KT 10SM SCT031 32/23 A2994 RMK AO2 SLP142 6//// T0317022810317 20206 50001

KSRC 191656Z AUTO 20006KT 10SM CLR 31/24 A2994 RMK AO2 SLP143 T03060244

KSRC 191556Z AUTO 15005KT 10SM CLR 29/24 A2994 RMK AO2 SLP143 T02940239

KSRC 191456Z AUTO 00000KT 10SM BKN070 28/23 A2994 RMK AO2 SLP142 6//// T02780233TSNO

KSRC 191356Z AUTO 20003KT 10SM BKN060 24/22 A2994 RMK AO2 SLP144 T02440222